Time;durP1;ratioP1;P1;durP2;ratioP2;P2;SDS_P1;SDS_P2;PMS_P1;PMS_P2;Temp;Humidity;BMP_temperature;BMP_pressure;BME280_temperature;BME280_humidity;BME280_pressure;Samples;Min_cycle;Max_cycle;Signal;HPM_P1;HPM_P2
2023/01/16 00:02:12;;;;;;;28.65;12.20;;;;;;;-1.83;61.58;100024.34;5071069;28;20040;-61
2023/01/16 00:04:37;;;;;;;32.35;11.75;;;;;;;-1.78;61.26;100023.34;5072174;28;20025;-53
2023/01/16 00:07:03;;;;;;;32.95;10.25;;;;;;;-1.66;61.36;100027.41;5071058;28;20376;-54
2023/01/16 00:09:28;;;;;;;33.85;11.90;;;;;;;-1.71;60.86;100008.25;5071845;28;20028;-54
2023/01/16 00:11:54;;;;;;;24.42;11.05;;;;;;;-1.72;61.40;100024.91;5072123;28;20024;-51
2023/01/16 00:14:19;;;;;;;27.95;11.15;;;;;;;-1.70;61.49;100015.22;5072090;28;20028;-52
2023/01/16 00:16:44;;;;;;;30.05;11.75;;;;;;;-1.70;61.02;100025.72;5072222;28;20032;-54
2023/01/16 00:19:10;;;;;;;27.35;11.18;;;;;;;-1.62;60.73;100012.41;5071986;28;20353;-53
2023/01/16 00:21:35;;;;;;;33.40;11.75;;;;;;;-1.63;61.34;100010.69;5071372;28;20330;-56
2023/01/16 00:24:01;;;;;;;33.78;11.93;;;;;;;-1.76;61.37;100010.16;5071405;28;20391;-52
2023/01/16 00:26:28;;;;;;;31.80;13.30;;;;;;;-1.72;61.01;100011.78;5072268;28;20430;-53
2023/01/16 00:28:54;;;;;;;32.97;11.60;;;;;;;-1.78;61.47;100010.22;5051025;28;20079;-51
2023/01/16 00:31:23;;;;;;;20.83;9.13;;;;;;;-1.67;61.08;99999.44;5055358;28;20125;-57
2023/01/16 00:33:48;;;;;;;34.35;12.43;;;;;;;-1.80;61.26;99990.16;5074164;28;20090;-52
2023/01/16 00:36:14;;;;;;;30.10;11.77;;;;;;;-1.84;61.74;99996.38;5075525;28;20127;-61
2023/01/16 00:38:40;;;;;;;26.08;12.20;;;;;;;-1.82;61.58;99999.84;5075641;28;20385;-51
2023/01/16 00:41:05;;;;;;;31.50;12.52;;;;;;;-1.79;61.60;100008.50;5075148;28;20041;-52
2023/01/16 00:43:31;;;;;;;34.50;12.75;;;;;;;-2.12;62.13;99948.13;5075191;28;20680;-55
2023/01/16 00:45:57;;;;;;;37.67;14.55;;;;;;;-1.77;61.57;99995.31;5075587;28;20344;-52
2023/01/16 00:48:23;;;;;;;34.15;13.23;;;;;;;-1.81;62.00;99991.94;5074723;28;20039;-54
2023/01/16 00:50:49;;;;;;;34.75;12.50;;;;;;;-1.87;61.99;99976.31;5057413;28;20119;-54
2023/01/16 00:53:15;;;;;;;34.95;11.50;;;;;;;-1.79;61.92;99973.50;5075334;28;20044;-60
2023/01/16 00:55:41;;;;;;;33.05;11.73;;;;;;;-1.86;61.84;99971.94;5075006;28;20029;-55
2023/01/16 00:58:10;;;;;;;24.02;10.25;;;;;;;-1.71;61.31;99982.00;5074959;28;20467;-51
2023/01/16 01:00:36;;;;;;;26.48;12.68;;;;;;;-1.73;61.72;99983.81;5074890;28;20103;-54
2023/01/16 01:03:04;;;;;;;24.70;12.80;;;;;;;-1.79;62.27;99981.38;5074648;28;20042;-52
2023/01/16 01:05:29;;;;;;;31.88;11.73;;;;;;;-1.79;62.00;99968.25;5074246;28;20452;-53
2023/01/16 01:07:55;;;;;;;34.90;13.38;;;;;;;-1.79;62.02;99961.25;5074410;28;20113;-54
2023/01/16 01:10:21;;;;;;;35.88;12.82;;;;;;;-1.64;61.20;99965.22;5074664;28;20033;-57
2023/01/16 01:12:46;;;;;;;32.38;12.77;;;;;;;-1.71;61.67;99970.66;5074764;28;20060;-62
2023/01/16 01:15:12;;;;;;;25.15;11.07;;;;;;;-1.82;62.29;99968.34;5074970;28;20114;-58
2023/01/16 01:17:38;;;;;;;32.40;11.50;;;;;;;-1.80;62.05;99961.28;5074415;28;20078;-61
2023/01/16 01:20:04;;;;;;;30.98;11.75;;;;;;;-1.88;62.22;99962.34;5074692;28;20510;-59
2023/01/16 01:22:29;;;;;;;32.85;12.68;;;;;;;-1.80;62.03;99966.53;5073964;28;20109;-56
2023/01/16 01:24:55;;;;;;;30.13;12.73;;;;;;;-1.75;61.91;99955.00;5074108;28;20066;-56
2023/01/16 01:27:20;;;;;;;32.05;12.18;;;;;;;-1.97;62.10;99932.88;5074616;28;20025;-55
2023/01/16 01:29:46;;;;;;;29.70;12.82;;;;;;;-1.81;61.89;99955.19;5074637;28;20111;-55
2023/01/16 01:32:11;;;;;;;30.33;13.00;;;;;;;-1.81;61.91;99938.56;5074162;28;20028;-56
2023/01/16 01:34:37;;;;;;;27.60;11.73;;;;;;;-1.80;62.43;99951.66;5073829;28;20564;-52
2023/01/16 01:37:07;;;;;;;39.38;13.30;;;;;;;-1.79;62.17;99955.13;5074104;28;20041;-53
2023/01/16 01:39:33;;;;;;;27.23;11.57;;;;;;;-1.84;61.97;99933.41;5072573;28;20114;-55
2023/01/16 01:44:53;;;;;;;26.40;11.07;;;;;;;-2.05;62.90;99893.72;5074014;28;20031;-55
2023/01/16 01:47:23;;;;;;;37.28;12.73;;;;;;;-1.90;62.75;99914.31;5074081;28;20047;-64
2023/01/16 01:49:49;;;;;;;32.30;12.60;;;;;;;-1.91;62.80;99912.59;5073569;28;20551;-63
2023/01/16 01:52:15;;;;;;;34.15;12.85;;;;;;;-1.98;62.63;99881.28;5074325;28;20043;-57
2023/01/16 01:54:47;;;;;;;27.33;11.73;;;;;;;-1.83;62.85;99919.38;5073850;28;20520;-57
2023/01/16 01:57:17;;;;;;;32.53;13.27;;;;;;;-1.76;62.80;99921.78;5073715;28;20039;-54
2023/01/16 01:59:49;;;;;;;35.80;13.25;;;;;;;-1.81;62.68;99897.44;5072581;28;20360;-54
2023/01/16 02:02:20;;;;;;;24.20;9.93;;;;;;;-1.72;62.60;99904.16;5074404;28;20119;-55
2023/01/16 02:04:49;;;;;;;35.92;11.88;;;;;;;-1.77;62.20;99898.19;5073672;28;20406;-56
2023/01/16 02:07:19;;;;;;;35.60;13.60;;;;;;;-1.85;62.62;99879.19;5073789;28;20089;-56
2023/01/16 02:09:44;;;;;;;33.50;11.23;;;;;;;-1.91;63.28;99920.44;5074224;28;20163;-55
2023/01/16 02:12:13;;;;;;;31.77;12.45;;;;;;;-1.84;62.93;99894.03;5072776;28;20435;-53
2023/01/16 02:14:45;;;;;;;30.95;12.13;;;;;;;-1.93;63.42;99880.28;5072973;28;20020;-57
2023/01/16 02:20:09;;;;;;;38.63;10.35;;;;;;;-1.92;62.27;99844.38;5073202;28;20024;-51
2023/01/16 02:22:53;;;;;;;42.38;12.75;;;;;;;-1.84;62.51;99892.25;5073470;28;20040;-50
2023/01/16 02:25:36;;;;;;;34.38;11.98;;;;;;;-1.83;63.24;99904.47;5073442;28;20369;-57
2023/01/16 02:28:19;;;;;;;28.38;11.43;;;;;;;-1.86;63.21;99882.72;5073107;28;20028;-52
2023/01/16 02:31:03;;;;;;;34.72;12.13;;;;;;;-1.80;63.24;99893.91;5073670;28;20025;-56
2023/01/16 02:33:43;;;;;;;39.65;12.05;;;;;;;-1.74;62.75;99890.22;5072971;28;20091;-52
2023/01/16 02:36:47;;;;;;;35.70;12.23;;;;;;;-1.68;62.49;99883.94;5072894;28;20360;-58
2023/01/16 02:39:44;;;;;;;28.67;10.57;;;;;;;-1.69;62.79;99901.44;5073099;28;20059;-59
2023/01/16 02:42:10;;;;;;;30.38;11.18;;;;;;;-1.88;62.88;99867.00;5072260;28;20048;-55
2023/01/16 02:44:45;;;;;;;32.20;11.35;;;;;;;-2.08;62.96;99830.84;5072700;28;20361;-57
2023/01/16 02:47:43;;;;;;;30.08;11.82;;;;;;;-1.80;63.05;99879.91;5072757;28;20040;-56
2023/01/16 02:50:18;;;;;;;26.80;10.90;;;;;;;-1.66;62.47;99883.00;5065459;28;20067;-51
2023/01/16 02:53:12;;;;;;;24.80;10.20;;;;;;;-1.74;62.42;99866.59;5071526;28;20040;-55
2023/01/16 02:55:53;;;;;;;34.55;11.35;;;;;;;-1.88;63.36;99883.63;5072715;28;20028;-53
2023/01/16 02:58:20;;;;;;;34.35;10.63;;;;;;;-2.01;63.47;99871.75;5072967;28;20036;-54
2023/01/16 03:00:57;;;;;;;28.63;12.27;;;;;;;-1.79;62.98;99858.00;5072127;28;20033;-55
2023/01/16 03:03:46;;;;;;;27.40;10.60;;;;;;;-1.81;62.83;99870.31;5072713;28;20078;-58
2023/01/16 03:06:14;;;;;;;37.85;11.40;;;;;;;-1.92;63.11;99868.88;5072300;28;20028;-57
2023/01/16 03:09:07;;;;;;;35.22;11.43;;;;;;;-2.02;63.57;99868.28;5072795;28;20040;-55
2023/01/16 03:11:47;;;;;;;32.75;10.80;;;;;;;-2.21;63.48;99830.34;5071591;28;20021;-55
2023/01/16 03:14:27;;;;;;;36.50;12.23;;;;;;;-2.06;63.67;99852.66;5071119;28;20025;-53
2023/01/16 03:17:31;;;;;;;34.13;12.82;;;;;;;-1.98;63.22;99848.03;5072894;28;20025;-62
2023/01/16 03:20:25;;;;;;;32.40;10.57;;;;;;;-1.91;63.25;99851.34;5050233;28;20033;-57
2023/01/16 03:23:14;;;;;;;32.00;10.75;;;;;;;-1.91;63.29;99841.72;5072642;28;20033;-54
2023/01/16 03:25:48;;;;;;;39.17;11.57;;;;;;;-1.92;62.87;99845.25;5071775;28;20037;-52
2023/01/16 03:28:38;;;;;;;33.35;10.45;;;;;;;-1.91;63.63;99841.72;5071858;28;20060;-54
2023/01/16 03:31:17;;;;;;;35.88;10.63;;;;;;;-1.94;63.65;99844.41;5072402;28;20062;-53
2023/01/16 03:33:58;;;;;;;28.08;10.32;;;;;;;-1.87;63.02;99839.84;5071484;28;20115;-54
2023/01/16 03:36:29;;;;;;;35.38;10.60;;;;;;;-1.98;63.34;99821.78;5052161;28;20178;-53
2023/01/16 03:39:00;;;;;;;34.08;9.40;;;;;;;-1.87;63.16;99850.34;5052167;28;20049;-56
2023/01/16 03:41:29;;;;;;;33.70;11.25;;;;;;;-1.87;63.07;99845.09;5051939;28;20088;-57
2023/01/16 03:44:02;;;;;;;36.53;9.82;;;;;;;-1.92;63.38;99863.63;5067502;28;20040;-57
2023/01/16 03:46:31;;;;;;;33.25;10.80;;;;;;;-1.88;63.19;99851.25;5072391;28;20040;-55
2023/01/16 03:49:06;;;;;;;32.20;11.32;;;;;;;-1.95;63.60;99834.81;5072211;28;20116;-58
2023/01/16 03:51:42;;;;;;;;;;;;;;;-1.62;62.13;99844.38;5072442;28;20028;-56
2023/01/16 03:54:36;;;;;;;38.33;12.77;;;;;;;-1.75;62.13;99849.13;5071422;28;19920;-55
2023/01/16 03:57:33;;;;;;;35.42;11.55;;;;;;;-1.79;63.10;99850.13;5072156;28;20483;-60
2023/01/16 04:00:00;;;;;;;37.35;10.88;;;;;;;-2.06;63.09;99808.03;5056104;28;20048;-55
2023/01/16 04:02:43;;;;;;;34.85;11.52;;;;;;;-1.84;63.17;99839.75;5072036;28;20038;-59
2023/01/16 04:05:20;;;;;;;40.75;12.15;;;;;;;-1.79;63.27;99845.75;5076248;28;20029;-53
2023/01/16 04:07:53;;;;;;;29.90;10.60;;;;;;;-1.71;62.66;99845.50;5075736;28;20245;-57
2023/01/16 04:10:23;;;;;;;30.92;10.30;;;;;;;-2.02;62.78;99796.56;5075877;28;20033;-57
2023/01/16 04:12:59;;;;;;;33.20;10.82;;;;;;;-1.91;63.13;99794.50;5075415;28;20104;-55
2023/01/16 04:15:29;;;;;;;39.83;10.30;;;;;;;-1.78;63.39;99838.72;5076018;28;20064;-58
2023/01/16 04:17:55;;;;;;;34.97;11.15;;;;;;;-1.81;63.30;99825.69;5075775;28;20031;-55
2023/01/16 04:20:22;;;;;;;27.30;8.77;;;;;;;-1.81;63.13;99828.31;5075096;28;20044;-57
2023/01/16 04:22:49;;;;;;;33.58;10.75;;;;;;;-1.83;63.35;99830.13;5075409;28;20032;-57
2023/01/16 04:25:16;;;;;;;34.33;11.82;;;;;;;-1.83;63.29;99822.25;5075867;28;20071;-57
2023/01/16 04:27:41;;;;;;;33.50;10.23;;;;;;;-1.87;63.36;99800.47;5075631;28;20467;-61
2023/01/16 04:30:08;;;;;;;26.92;10.27;;;;;;;-1.82;63.12;99810.84;5075419;28;20032;-55
2023/01/16 04:32:34;;;;;;;40.30;10.60;;;;;;;-1.82;63.17;99811.69;5075233;28;20028;-53
2023/01/16 04:34:59;;;;;;;25.67;11.13;;;;;;;-2.03;63.25;99784.34;5075219;28;20041;-54
2023/01/16 04:37:25;;;;;;;26.58;9.98;;;;;;;-1.74;62.40;99803.59;5075980;28;20062;-58
2023/01/16 04:39:50;;;;;;;34.22;10.02;;;;;;;-1.77;62.55;99815.06;5073965;28;20472;-55
2023/01/16 04:42:16;;;;;;;25.75;9.25;;;;;;;-1.80;62.98;99809.03;5075113;28;20495;-57
2023/01/16 04:44:42;;;;;;;30.13;9.90;;;;;;;-1.77;62.73;99814.19;5073833;28;20032;-57
2023/01/16 04:47:07;;;;;;;35.38;9.82;;;;;;;-1.92;62.69;99787.53;5075114;28;20028;-59
2023/01/16 04:49:33;;;;;;;30.33;10.45;;;;;;;-2.01;62.79;99793.03;5075029;28;20060;-58
2023/01/16 04:51:58;;;;;;;30.77;10.70;;;;;;;-1.85;62.73;99811.78;5075232;28;20368;-62
2023/01/16 04:54:24;;;;;;;39.40;10.45;;;;;;;-2.02;63.27;99804.44;5075064;28;20050;-56
2023/01/16 04:56:49;;;;;;;33.58;10.73;;;;;;;-1.86;63.24;99814.47;5073421;28;20032;-57
2023/01/16 04:59:15;;;;;;;31.67;10.30;;;;;;;-1.86;62.94;99820.56;5075095;28;20373;-55
2023/01/16 05:01:41;;;;;;;34.75;10.57;;;;;;;-1.93;63.02;99806.81;5074394;28;20074;-55
2023/01/16 05:04:09;;;;;;;28.85;9.13;;;;;;;-2.11;63.11;99773.22;5074851;28;20501;-51
2023/01/16 05:06:34;;;;;;;25.25;9.70;;;;;;;-1.94;63.55;99802.44;5074778;28;20044;-53
2023/01/16 05:09:01;;;;;;;30.83;10.02;;;;;;;-1.91;63.04;99788.38;5074827;28;20032;-63
2023/01/16 05:11:26;;;;;;;34.22;10.43;;;;;;;-1.91;63.08;99804.13;5073723;28;20691;-59
2023/01/16 05:13:52;;;;;;;27.13;9.73;;;;;;;-1.94;63.49;99804.22;5074085;28;20475;-52
2023/01/16 05:16:17;;;;;;;31.88;10.75;;;;;;;-1.98;63.80;99794.72;5070907;28;20094;-63
2023/01/16 05:18:43;;;;;;;29.27;10.20;;;;;;;-1.88;63.22;99802.28;5071603;28;20086;-51
2023/01/16 05:21:08;;;;;;;35.17;10.13;;;;;;;-1.82;62.90;99798.56;5074182;28;20020;-52
2023/01/16 05:23:34;;;;;;;31.75;10.45;;;;;;;-1.98;62.91;99784.22;5073636;28;20032;-54
2023/01/16 05:26:00;;;;;;;36.55;10.25;;;;;;;-2.00;63.67;99794.75;5065489;28;20032;-55
2023/01/16 05:28:26;;;;;;;32.65;10.05;;;;;;;-1.95;63.76;99798.09;5063349;28;20456;-56
2023/01/16 05:30:51;;;;;;;27.20;9.98;;;;;;;-1.89;63.32;99810.16;5060894;28;20029;-57
2023/01/16 05:33:18;;;;;;;32.75;10.98;;;;;;;-1.92;63.08;99805.88;5073338;28;20345;-58
2023/01/16 05:35:45;;;;;;;40.53;12.07;;;;;;;-1.97;63.00;99794.66;5073689;28;20121;-53
2023/01/16 05:38:11;;;;;;;30.58;9.95;;;;;;;-1.96;63.03;99785.03;5073875;28;20033;-54
2023/01/16 05:40:36;;;;;;;38.63;10.32;;;;;;;-1.96;63.09;99788.50;5073999;28;20044;-55
2023/01/16 05:43:02;;;;;;;36.90;11.07;;;;;;;-1.99;63.50;99796.47;5073859;28;20032;-61
2023/01/16 05:45:27;;;;;;;24.98;8.32;;;;;;;-1.77;62.75;99815.06;5074219;28;20040;-55
2023/01/16 05:47:53;;;;;;;35.13;9.60;;;;;;;-1.95;62.74;99800.72;5073876;28;20441;-55
2023/01/16 05:50:18;;;;;;;34.97;9.82;;;;;;;-2.07;63.67;99790.59;5074004;28;20029;-54
2023/01/16 05:52:43;;;;;;;24.33;6.88;;;;;;;-1.97;63.33;99799.06;5073788;28;20029;-56
2023/01/16 05:55:09;;;;;;;43.97;10.68;;;;;;;-2.06;63.09;99800.19;5073473;28;20136;-55
2023/01/16 05:57:35;;;;;;;41.75;10.68;;;;;;;-2.06;62.86;99795.78;5073588;28;20036;-52
2023/01/16 06:00:00;;;;;;;33.17;9.88;;;;;;;-2.13;63.70;99811.75;5074135;28;20058;-53
2023/01/16 06:02:25;;;;;;;31.10;10.77;;;;;;;-2.16;63.15;99786.47;5072658;28;20068;-53
2023/01/16 06:04:51;;;;;;;44.65;11.55;;;;;;;-2.22;63.57;99813.72;5073326;28;20467;-54
2023/01/16 06:07:17;;;;;;;41.05;9.30;;;;;;;-2.20;63.59;99804.03;5072736;28;20036;-55
2023/01/16 06:09:42;;;;;;;36.08;10.48;;;;;;;-2.31;63.74;99793.00;5073531;28;20037;-55
2023/01/16 06:12:14;;;;;;;36.35;10.25;;;;;;;-2.14;63.73;99799.56;5073776;28;20461;-57
2023/01/16 06:14:39;;;;;;;31.58;9.43;;;;;;;-2.17;63.26;99796.13;5073299;28;20366;-54
2023/01/16 06:17:04;;;;;;;35.45;8.38;;;;;;;-2.10;62.94;99777.56;5073152;28;20036;-55
2023/01/16 06:19:30;;;;;;;47.95;12.20;;;;;;;-2.09;63.03;99789.78;5073713;28;20048;-54
2023/01/16 06:21:55;;;;;;;38.78;9.35;;;;;;;-2.06;63.24;99794.94;5072571;28;20025;-55
2023/01/16 06:24:21;;;;;;;36.53;9.80;;;;;;;-2.05;62.75;99808.00;5073056;28;20028;-55
2023/01/16 06:26:46;;;;;;;33.38;9.45;;;;;;;-2.08;62.97;99815.09;5069875;28;20467;-56
2023/01/16 06:29:12;;;;;;;41.38;10.60;;;;;;;-2.13;62.56;99796.88;5073397;28;20449;-57
2023/01/16 06:31:37;;;;;;;31.13;10.52;;;;;;;-2.14;63.07;99796.94;5072932;28;20029;-56
2023/01/16 06:34:03;;;;;;;36.22;10.02;;;;;;;-2.09;62.52;99802.91;5072569;28;20062;-59
2023/01/16 06:36:28;;;;;;;36.22;9.38;;;;;;;-2.12;62.66;99805.59;5072323;28;20040;-52
2023/01/16 06:38:54;;;;;;;45.95;10.30;;;;;;;-2.08;62.86;99796.75;5072968;28;20029;-51
2023/01/16 06:41:19;;;;;;;31.85;10.70;;;;;;;-2.15;63.24;99795.22;5072898;28;20458;-54
2023/01/16 06:43:45;;;;;;;37.53;9.02;;;;;;;-2.09;62.81;99790.63;5071229;28;20024;-54
2023/01/16 06:46:10;;;;;;;35.03;9.85;;;;;;;-2.10;62.68;99823.00;5072583;28;20036;-56
2023/01/16 06:48:36;;;;;;;40.97;10.07;;;;;;;-2.05;62.57;99799.28;5070693;28;20040;-55
2023/01/16 06:51:01;;;;;;;36.03;9.60;;;;;;;-2.02;62.26;99799.19;5071773;28;20036;-55
2023/01/16 06:53:27;;;;;;;43.10;9.20;;;;;;;-2.11;62.54;99789.81;5071656;28;20063;-53
2023/01/16 06:55:53;;;;;;;38.40;10.00;;;;;;;-2.09;62.87;99797.66;5072032;28;20126;-53
2023/01/16 06:58:18;;;;;;;36.28;9.50;;;;;;;-2.00;62.49;99807.84;5065883;28;20128;-57
2023/01/16 07:00:44;;;;;;;26.77;10.25;;;;;;;-2.01;61.81;99806.13;5053615;28;20024;-64
2023/01/16 07:03:10;;;;;;;28.00;10.95;;;;;;;-2.10;62.51;99796.78;5062564;28;20136;-55
2023/01/16 07:05:36;;;;;;;34.33;9.73;;;;;;;-2.04;61.90;99809.72;5072154;28;20025;-56
2023/01/16 07:08:02;;;;;;;28.45;9.40;;;;;;;-2.01;61.83;99803.53;5057855;28;20039;-54
2023/01/16 07:10:28;;;;;;;28.95;8.77;;;;;;;-1.96;62.17;99811.25;5069921;28;20044;-57
2023/01/16 07:12:54;;;;;;;26.15;9.27;;;;;;;-2.00;62.02;99812.25;5068315;28;20028;-57
2023/01/16 07:23:48;;;;;;;25.92;7.85;;;;;;;-2.19;61.95;99787.41;5094705;28;20102;-57
2023/01/16 07:26:19;;;;;;;22.63;7.75;;;;;;;-2.00;61.21;99807.84;5069331;28;20052;-61
2023/01/16 07:28:46;;;;;;;24.02;7.20;;;;;;;-2.00;60.79;99822.75;5061385;28;20485;-59
2023/01/16 07:31:13;;;;;;;18.90;7.10;;;;;;;-2.09;61.29;99814.22;5070897;28;20028;-56
2023/01/16 07:33:38;;;;;;;20.05;6.45;;;;;;;-2.05;61.48;99804.50;5062080;28;20047;-57
2023/01/16 07:36:04;;;;;;;27.85;7.40;;;;;;;-2.00;61.58;99820.97;5058586;28;20521;-68
2023/01/16 07:38:30;;;;;;;22.73;7.63;;;;;;;-1.90;60.75;99793.59;5072785;28;20036;-59
2023/01/16 07:40:55;;;;;;;28.60;7.35;;;;;;;-2.20;60.77;99771.72;5075914;28;20025;-59
2023/01/16 07:43:21;;;;;;;25.40;7.70;;;;;;;-1.99;61.26;99803.50;5075493;28;20479;-59
2023/01/16 07:45:51;;;;;;;26.20;7.53;;;;;;;-2.19;60.96;99766.41;5074759;28;20035;-57
2023/01/16 07:48:21;;;;;;;15.18;6.30;;;;;;;-1.85;60.51;99824.06;5065557;28;20024;-59
2023/01/16 07:50:56;;;;;;;28.27;7.53;;;;;;;-1.84;60.45;99813.50;5066212;28;20028;-58
2023/01/16 07:53:24;;;;;;;27.23;9.85;;;;;;;-1.98;61.20;99829.66;5065183;28;20026;-64
2023/01/16 07:55:53;;;;;;;15.85;5.50;;;;;;;-1.89;60.77;99799.69;5072600;28;20052;-62
2023/01/16 07:58:20;;;;;;;24.52;8.00;;;;;;;-1.97;61.00;99818.25;5064221;28;20452;-58
2023/01/16 08:00:46;;;;;;;21.83;6.55;;;;;;;-1.91;60.74;99822.47;5075110;28;20028;-59
2023/01/16 08:03:13;;;;;;;22.20;6.68;;;;;;;-1.90;60.66;99814.56;5069124;28;20353;-58
2023/01/16 08:05:38;;;;;;;26.05;7.35;;;;;;;-1.89;59.99;99808.44;5067534;28;20577;-62
2023/01/16 08:08:04;;;;;;;29.90;8.85;;;;;;;-1.91;60.19;99820.72;5075947;28;20024;-70
2023/01/16 08:10:29;;;;;;;30.63;8.07;;;;;;;-2.10;60.28;99791.53;5075441;28;20483;-60
2023/01/16 08:12:55;;;;;;;26.60;7.63;;;;;;;-2.02;60.60;99810.53;5075144;28;20032;-66
2023/01/16 08:15:20;;;;;;;26.08;7.38;;;;;;;-1.97;60.81;99812.16;5075058;28;20060;-58
2023/01/16 08:17:46;;;;;;;17.50;7.10;;;;;;;-1.86;60.09;99817.09;5066256;28;20058;-57
2023/01/16 08:20:12;;;;;;;21.05;7.93;;;;;;;-2.20;60.87;99793.53;5064927;28;20086;-62
2023/01/16 08:22:49;;;;;;;22.38;7.97;;;;;;;-2.01;60.95;99811.38;5065406;28;20097;-56
2023/01/16 08:25:16;;;;;;;20.02;7.97;;;;;;;-2.09;60.72;99805.50;5072454;28;20098;-59
2023/01/16 08:27:42;;;;;;;16.77;6.40;;;;;;;-2.04;60.25;99791.38;5074868;28;20132;-56
2023/01/16 08:30:08;;;;;;;20.27;7.65;;;;;;;-2.01;60.30;99800.91;5075263;28;20467;-55
2023/01/16 08:32:34;;;;;;;25.67;6.75;;;;;;;-2.03;60.65;99806.22;5074248;28;20357;-61
2023/01/16 08:34:59;;;;;;;25.88;8.60;;;;;;;-2.02;60.58;99825.41;5075261;28;20055;-57
2023/01/16 08:37:25;;;;;;;21.17;7.97;;;;;;;-1.90;59.52;99813.69;5085946;28;20371;-60
2023/01/16 08:39:50;;;;;;;25.02;7.97;;;;;;;-2.10;60.63;99798.56;5071718;28;20482;-57
2023/01/16 08:53:12;;;;;;;31.65;7.35;;;;;;;-1.89;60.58;99826.78;5073857;28;20372;-57
2023/01/16 08:55:41;;;;;;;21.45;8.68;;;;;;;-1.97;60.44;99806.94;5074448;28;20025;-55
2023/01/16 08:58:06;;;;;;;24.67;7.68;;;;;;;-2.21;60.96;99783.13;5073347;28;20033;-59
2023/01/16 09:00:33;;;;;;;29.55;8.35;;;;;;;-2.09;60.95;99813.38;5074699;28;20184;-56
2023/01/16 09:03:01;;;;;;;26.85;7.35;;;;;;;-1.98;60.78;99784.22;5074205;28;20464;-55
2023/01/16 09:05:27;;;;;;;15.73;6.82;;;;;;;-2.06;60.54;99797.56;5074111;28;20085;-55
2023/01/16 09:07:53;;;;;;;24.25;8.15;;;;;;;-2.17;60.88;99816.22;5068716;28;20658;-53
2023/01/16 09:10:19;;;;;;;19.52;8.20;;;;;;;-2.18;61.40;99798.75;5063101;28;20029;-56
2023/01/16 09:15:28;;;;;;;26.77;8.40;;;;;;;-2.10;61.31;99788.06;5072340;28;20075;-56
2023/01/16 09:17:53;;;;;;;28.42;8.18;;;;;;;-2.11;61.42;99796.84;5074013;28;20052;-53
2023/01/16 09:20:19;;;;;;;24.45;7.47;;;;;;;-2.03;61.17;99787.84;5056484;28;20110;-58
2023/01/16 09:22:44;;;;;;;25.63;8.40;;;;;;;-2.06;61.78;99790.53;5073980;28;20032;-56
2023/01/16 09:25:10;;;;;;;18.70;8.30;;;;;;;-2.06;61.94;99789.69;5074129;28;20040;-63
2023/01/16 09:27:35;;;;;;;16.10;7.10;;;;;;;-1.99;61.62;99791.22;5074447;28;20029;-57
2023/01/16 09:30:01;;;;;;;16.83;7.45;;;;;;;-1.97;61.67;99778.91;5073367;28;20029;-53
2023/01/16 09:32:27;;;;;;;23.58;8.43;;;;;;;-2.03;61.82;99782.59;5070039;28;20797;-56
2023/01/16 09:34:53;;;;;;;23.95;7.18;;;;;;;-2.01;61.94;99787.78;5063922;28;20083;-59
2023/01/16 09:37:18;;;;;;;23.90;7.40;;;;;;;-1.93;61.74;99772.69;5064454;28;20096;-58
2023/01/16 09:39:44;;;;;;;19.65;7.05;;;;;;;-1.90;61.67;99758.59;5062693;28;20096;-56
2023/01/16 09:45:27;;;;;;;17.88;8.00;;;;;;;-1.89;61.52;99758.56;5063734;28;20032;-60
2023/01/16 09:47:58;;;;;;;26.92;7.97;;;;;;;-1.95;62.18;99771.84;5066577;28;20032;-53
2023/01/16 09:50:31;;;;;;;21.15;8.10;;;;;;;-1.78;61.79;99781.84;5066804;28;20032;-56
2023/01/16 09:58:37;;;;;;;20.98;8.18;;;;;;;-1.87;61.93;99750.63;5061319;28;20029;-63
2023/01/16 10:01:07;;;;;;;20.60;7.20;;;;;;;-1.86;61.63;99741.00;5065660;28;20074;-61
2023/01/16 10:03:33;;;;;;;17.90;7.38;;;;;;;-1.86;61.97;99767.25;5067224;28;20063;-55
2023/01/16 10:06:20;;;;;;;18.90;7.68;;;;;;;-1.79;62.14;99760.88;5065159;28;20036;-54
2023/01/16 10:08:54;;;;;;;14.85;6.85;;;;;;;-1.77;61.98;99741.59;5063206;28;20033;-57
2023/01/16 10:11:33;;;;;;;10.30;5.87;;;;;;;-1.65;61.18;99740.34;5062374;28;20039;-56
2023/01/16 10:14:30;;;;;;;13.85;5.72;;;;;;;-1.67;61.63;99733.41;5072356;28;20028;-58
2023/01/16 10:17:18;;;;;;;22.08;7.45;;;;;;;-1.69;61.82;99722.94;5071116;28;20042;-53
2023/01/16 10:20:21;;;;;;;26.13;7.45;;;;;;;-1.63;61.62;99737.66;5072060;28;20036;-56
2023/01/16 10:23:12;;;;;;;16.13;6.63;;;;;;;-1.67;61.83;99746.53;5073106;28;20032;-56
2023/01/16 10:25:52;;;;;;;26.20;8.07;;;;;;;-1.73;62.04;99718.69;5073387;28;20036;-53
2023/01/16 10:28:33;;;;;;;21.35;7.40;;;;;;;-1.63;61.94;99733.28;5073000;28;20029;-56
2023/01/16 10:31:20;;;;;;;20.27;7.15;;;;;;;-1.65;62.00;99724.59;5072929;28;20044;-57
2023/01/16 10:34:05;;;;;;;20.33;7.25;;;;;;;-1.50;61.81;99711.84;5072438;28;20352;-56
2023/01/16 10:36:38;;;;;;;16.35;7.05;;;;;;;-1.41;61.38;99716.81;5052493;28;20071;-57
2023/01/16 10:39:04;;;;;;;21.33;7.55;;;;;;;-1.46;60.71;99721.34;5053173;28;20032;-55
2023/01/16 10:50:20;;;;;;;26.13;7.82;;;;;;;-1.44;60.93;99727.44;5052848;28;20033;-53
2023/01/16 10:52:47;;;;;;;20.05;7.28;;;;;;;-1.45;60.92;99741.44;5052416;28;20055;-54
2023/01/16 10:55:14;;;;;;;19.70;7.57;;;;;;;-1.50;61.69;99706.59;5066901;28;20025;-56
2023/01/16 10:58:03;;;;;;;17.25;7.38;;;;;;;-1.40;61.44;99713.28;5070191;28;20360;-58
2023/01/16 11:00:40;;;;;;;23.92;7.22;;;;;;;-1.42;61.23;99701.97;5072081;28;20028;-55
2023/01/16 11:03:14;;;;;;;27.02;7.20;;;;;;;-1.41;61.59;99705.44;5072103;28;20040;-57
2023/01/16 11:05:40;;;;;;;21.40;7.47;;;;;;;-1.43;61.60;99700.25;5072838;28;20040;-70
2023/01/16 11:08:13;;;;;;;20.48;7.13;;;;;;;-1.35;61.85;99708.72;5072217;28;20037;-54
2023/01/16 11:10:44;;;;;;;19.60;6.63;;;;;;;-1.28;62.12;99703.25;5072628;28;20039;-54
2023/01/16 11:19:20;;;;;;;15.13;6.40;;;;;;;-1.10;61.39;99693.88;5072124;28;20119;-64
2023/01/16 11:22:07;;;;;;;10.60;5.22;;;;;;;-1.20;61.10;99657.44;5072453;28;20513;-55
2023/01/16 11:24:35;;;;;;;16.48;6.85;;;;;;;-1.12;62.03;99701.84;5072087;28;20376;-56
2023/01/16 11:27:07;;;;;;;16.40;6.47;;;;;;;-1.14;61.66;99724.69;5072429;28;20064;-56
2023/01/16 11:29:42;;;;;;;9.00;4.55;;;;;;;-0.95;61.67;99705.66;5072823;28;20093;-53
2023/01/16 11:32:10;;;;;;;;;;;;;;;-0.88;61.18;99694.84;5073242;28;20042;-55
2023/01/16 11:34:38;;;;;;;17.27;6.35;;;;;;;-1.27;61.97;99686.59;5071600;28;20385;-54
2023/01/16 11:37:07;;;;;;;18.45;6.95;;;;;;;-1.22;62.01;99716.19;5072592;28;20063;-56
2023/01/16 11:39:34;;;;;;;13.45;6.60;;;;;;;-1.27;62.78;99711.09;5072248;28;20472;-57
2023/01/16 11:47:43;;;;;;;20.30;7.13;;;;;;;-1.37;62.80;99707.06;5062298;28;20051;-58
2023/01/16 11:50:25;;;;;;;17.13;7.03;;;;;;;-1.40;62.73;99717.66;5071897;28;20025;-58
2023/01/16 11:52:51;;;;;;;14.52;6.60;;;;;;;-1.40;62.67;99701.91;5071873;28;20127;-55
2023/01/16 11:55:16;;;;;;;16.25;6.80;;;;;;;-1.42;62.77;99724.75;5072452;28;20426;-59
2023/01/16 11:57:49;;;;;;;15.10;7.00;;;;;;;-1.40;62.48;99702.78;5072743;28;20020;-58
2023/01/16 12:00:25;;;;;;;18.27;7.10;;;;;;;-1.56;61.94;99680.56;5068898;28;20028;-63
2023/01/16 12:03:06;;;;;;;19.35;7.25;;;;;;;-1.35;62.26;99726.25;5071791;28;20028;-59
2023/01/16 12:06:02;;;;;;;15.07;6.93;;;;;;;-1.35;61.87;99711.34;5071081;28;20037;-54
2023/01/16 12:09:13;;;;;;;14.98;7.30;;;;;;;-1.41;62.24;99731.69;5072299;28;20360;-58
2023/01/16 12:14:17;;;;;;;13.68;5.97;;;;;;;-1.33;61.39;99750.69;5065163;28;20480;-57
2023/01/16 12:15:01;;;;;;;14.05;6.88;;;;;;;-1.46;61.31;99734.47;5071427;28;20071;-56
2023/01/16 12:17:51;;;;;;;19.90;7.82;;;;;;;-1.55;61.82;99735.66;5072211;28;20024;-55
2023/01/16 12:20:45;;;;;;;18.15;6.68;;;;;;;-1.51;61.36;99737.25;5051284;28;20036;-55
2023/01/16 12:23:28;;;;;;;19.23;7.43;;;;;;;-1.52;60.89;99743.44;5064505;28;20124;-53
2023/01/16 12:26:12;;;;;;;17.95;7.78;;;;;;;-1.44;61.25;99722.19;5075060;28;20204;-53
2023/01/16 12:29:02;;;;;;;19.70;8.52;;;;;;;-1.67;61.23;99715.91;5075335;28;20032;-55
2023/01/16 12:31:38;;;;;;;16.35;7.55;;;;;;;-1.68;61.73;99715.94;5067671;28;20051;-56
2023/01/16 12:34:25;;;;;;;18.80;7.30;;;;;;;-1.62;61.29;99734.09;5074818;28;20095;-54
2023/01/16 12:37:00;;;;;;;17.42;6.70;;;;;;;-1.86;61.64;99689.34;5074249;28;20040;-54